Time;durP1;ratioP1;P1;durP2;ratioP2;P2;SDS_P1;SDS_P2;PMS_P1;PMS_P2;Temp;Humidity;BMP_temperature;BMP_pressure;BME280_temperature;BME280_humidity;BME280_pressure;Samples;Min_cycle;Max_cycle;Signal;HPM_P1;HPM_P2
2021/10/31 00:04:59;;;;;;;30.02;10.90;;;;;;;6.71;100.00;95363.66;10466780;28;20032;-71
2021/10/31 00:10:00;;;;;;;25.00;12.50;;;;;;;6.80;100.00;95364.97;10463699;28;20028;-71
2021/10/31 00:15:01;;;;;;;29.77;12.60;;;;;;;6.78;100.00;95364.38;10450543;28;20035;-72
2021/10/31 00:20:03;;;;;;;23.05;11.80;;;;;;;6.86;100.00;95347.97;10458971;28;20299;-70
2021/10/31 00:25:04;;;;;;;25.48;11.18;;;;;;;6.90;100.00;95354.47;10443036;28;20021;-75
2021/10/31 00:30:05;;;;;;;25.98;13.30;;;;;;;6.93;100.00;95359.34;10425982;28;20411;-72
2021/10/31 00:35:06;;;;;;;25.70;11.68;;;;;;;6.86;100.00;95350.66;10436132;28;20025;-71
2021/10/31 00:40:07;;;;;;;28.20;12.10;;;;;;;6.75;100.00;95344.25;10425534;28;20021;-74
2021/10/31 00:45:08;;;;;;;29.65;11.85;;;;;;;6.63;100.00;95349.63;10424322;28;20021;-76
2021/10/31 00:50:10;;;;;;;23.15;11.43;;;;;;;6.64;100.00;95350.44;10425002;28;20398;-72
2021/10/31 00:55:10;;;;;;;26.10;12.00;;;;;;;6.60;100.00;95352.78;10424757;28;20021;-74
2021/10/31 01:00:11;;;;;;;21.30;11.18;;;;;;;6.47;100.00;95347.66;10424509;28;20025;-71
2021/10/31 01:05:16;;;;;;;24.08;11.43;;;;;;;6.35;100.00;95352.16;10527838;22;20512;-71
2021/10/31 01:10:43;;;;;;;19.92;10.43;;;;;;;6.05;100.00;95353.06;10464118;28;20390;-76
2021/10/31 01:16:02;;;;;;;29.35;13.43;;;;;;;5.90;100.00;95340.13;10421391;28;20048;-76
2021/10/31 01:21:31;;;;;;;21.02;11.30;;;;;;;5.94;100.00;95342.09;10466644;28;20029;-70
2021/10/31 01:26:59;;;;;;;27.40;13.13;;;;;;;6.03;100.00;95339.13;10448362;28;20063;-74
2021/10/31 01:32:29;;;;;;;26.95;12.73;;;;;;;6.09;100.00;95333.69;10438945;28;20033;-73
2021/10/31 01:37:54;;;;;;;21.15;11.35;;;;;;;6.20;100.00;95332.09;10427792;28;20045;-76
2021/10/31 01:43:25;;;;;;;19.00;10.43;;;;;;;6.36;100.00;95324.44;10422546;28;20033;-74
2021/10/31 01:48:33;;;;;;;26.30;12.38;;;;;;;6.49;100.00;95318.88;10422837;28;20043;-71
2021/10/31 01:53:59;;;;;;;25.23;11.73;;;;;;;6.61;100.00;95308.97;10433149;28;20024;-76
2021/10/31 01:59:11;;;;;;;20.00;10.95;;;;;;;6.63;100.00;95309.56;10475721;28;20119;-75
2021/10/31 02:04:14;;;;;;;19.95;10.38;;;;;;;6.68;100.00;95298.16;10449344;28;20082;-75
2021/10/31 02:09:19;;;;;;;23.40;11.43;;;;;;;6.79;100.00;95304.56;10461439;28;20063;-71
2021/10/31 02:14:21;;;;;;;22.25;11.02;;;;;;;6.70;100.00;95301.44;10481083;28;20085;-75
2021/10/31 02:19:41;;;;;;;21.60;11.98;;;;;;;6.76;100.00;95305.03;10479030;28;20074;-71
2021/10/31 02:24:42;;;;;;;25.52;11.95;;;;;;;6.76;100.00;95299.69;10449899;28;20605;-71
2021/10/31 02:29:54;;;;;;;24.60;11.93;;;;;;;6.85;100.00;95303.59;10422073;28;20094;-78
2021/10/31 02:34:56;;;;;;;21.23;12.18;;;;;;;6.85;100.00;95292.91;10405717;28;20032;-75
2021/10/31 02:39:56;;;;;;;24.73;12.38;;;;;;;6.77;100.00;95296.78;10425267;28;20421;-74
2021/10/31 02:44:57;;;;;;;28.88;11.38;;;;;;;6.85;100.00;95298.25;10447258;28;20037;-72
2021/10/31 02:49:58;;;;;;;23.88;11.88;;;;;;;6.81;100.00;95287.25;10462496;28;20483;-71
2021/10/31 02:55:13;;;;;;;25.40;11.23;;;;;;;6.87;100.00;95290.84;10475005;28;20021;-71
2021/10/31 03:00:15;;;;;;;28.25;12.20;;;;;;;6.89;100.00;95290.59;10461898;28;20075;-71
2021/10/31 03:05:16;;;;;;;27.98;12.40;;;;;;;6.90;100.00;95285.00;10461377;28;20081;-72
2021/10/31 03:10:18;;;;;;;22.30;10.80;;;;;;;6.95;100.00;95282.44;10429295;28;20068;-70
2021/10/31 03:15:18;;;;;;;24.95;11.02;;;;;;;6.84;100.00;95291.31;10428313;28;20035;-70
2021/10/31 03:20:19;;;;;;;18.38;11.40;;;;;;;6.88;100.00;95286.28;10429648;28;20411;-74
2021/10/31 03:25:19;;;;;;;23.38;10.82;;;;;;;6.81;100.00;95291.78;10428634;28;20029;-74
2021/10/31 03:30:20;;;;;;;20.77;10.77;;;;;;;6.73;100.00;95278.78;10444658;28;20087;-76
2021/10/31 03:35:21;;;;;;;24.40;11.77;;;;;;;6.79;100.00;95278.63;10444823;28;20562;-75
2021/10/31 03:40:22;;;;;;;30.10;10.70;;;;;;;6.74;100.00;95286.56;10461042;28;20029;-77
2021/10/31 03:45:23;;;;;;;24.10;12.05;;;;;;;6.78;100.00;95279.72;10485971;28;20035;-74
2021/10/31 03:50:23;;;;;;;24.90;11.13;;;;;;;6.71;100.00;95286.22;10485991;28;20098;-71
2021/10/31 03:55:24;;;;;;;21.42;11.68;;;;;;;6.63;100.00;95280.19;10485493;28;20277;-70
2021/10/31 04:00:25;;;;;;;22.80;11.93;;;;;;;6.62;100.00;95277.75;10485736;28;20021;-71
2021/10/31 04:05:26;;;;;;;25.35;12.60;;;;;;;6.58;100.00;95277.41;10467718;28;20048;-71
2021/10/31 04:10:26;;;;;;;24.17;12.38;;;;;;;6.62;100.00;95275.09;10466630;28;20035;-71
2021/10/31 04:15:27;;;;;;;22.70;12.18;;;;;;;6.67;100.00;95276.00;10453793;28;20032;-70
2021/10/31 04:20:27;;;;;;;26.73;12.20;;;;;;;6.68;100.00;95276.81;10483903;28;20508;-69
2021/10/31 04:25:28;;;;;;;27.23;13.52;;;;;;;6.57;100.00;95267.78;10465745;28;20044;-70
2021/10/31 04:30:28;;;;;;;26.77;12.20;;;;;;;6.62;100.00;95267.88;10453385;28;20032;-74
2021/10/31 04:35:28;;;;;;;20.83;10.98;;;;;;;6.51;100.00;95271.38;10441612;28;20021;-72
2021/10/31 04:40:32;;;;;;;25.70;11.40;;;;;;;6.50;100.00;95270.56;10425322;28;20375;-70
2021/10/31 04:45:32;;;;;;;28.75;13.07;;;;;;;6.58;100.00;95265.91;10441561;28;20116;-71
2021/10/31 04:50:33;;;;;;;21.23;11.30;;;;;;;6.53;100.00;95258.63;10434907;28;20037;-70
2021/10/31 04:55:36;;;;;;;29.95;12.57;;;;;;;6.54;100.00;95252.22;10449271;28;20302;-76
2021/10/31 05:00:37;;;;;;;22.30;11.98;;;;;;;6.59;100.00;95252.31;10440856;28;20021;-75
2021/10/31 05:05:37;;;;;;;23.35;11.98;;;;;;;6.56;100.00;95252.81;10440980;28;20522;-71
2021/10/31 05:10:38;;;;;;;26.55;11.48;;;;;;;6.55;100.00;95247.69;10424674;28;20029;-77
2021/10/31 05:15:39;;;;;;;25.30;12.65;;;;;;;6.61;100.00;95244.88;10479196;28;20028;-70
2021/10/31 05:20:40;;;;;;;31.65;13.02;;;;;;;6.48;100.00;95255.81;10462056;28;20406;-72
2021/10/31 05:25:40;;;;;;;27.13;11.50;;;;;;;6.54;100.00;95262.88;10464971;28;20028;-71
2021/10/31 05:30:41;;;;;;;25.15;12.13;;;;;;;6.59;100.00;95255.00;10464704;28;20972;-70
2021/10/31 05:35:41;;;;;;;27.85;11.02;;;;;;;6.70;100.00;95256.03;10462933;28;20024;-72
2021/10/31 05:40:41;;;;;;;30.63;11.60;;;;;;;6.70;100.00;95255.19;10439761;28;20021;-70
2021/10/31 05:45:43;;;;;;;31.67;9.93;;;;;;;6.73;100.00;95257.41;10422547;28;20275;-70
2021/10/31 05:50:43;;;;;;;20.27;10.82;;;;;;;6.73;100.00;95265.44;10439586;28;20125;-70
2021/10/31 05:55:44;;;;;;;19.60;10.73;;;;;;;6.69;100.00;95265.09;10439021;28;20027;-70
2021/10/31 06:00:44;;;;;;;28.17;12.15;;;;;;;6.72;100.00;95269.16;10439201;28;20551;-70
2021/10/31 06:05:46;;;;;;;24.45;11.93;;;;;;;6.80;100.00;95269.59;10438362;28;20511;-72
2021/10/31 06:10:47;;;;;;;25.15;11.35;;;;;;;6.82;100.00;95266.66;10432437;28;20504;-75
2021/10/31 06:15:48;;;;;;;18.65;10.85;;;;;;;6.87;100.00;95269.47;10445577;28;20518;-73
2021/10/31 06:20:48;;;;;;;26.00;11.18;;;;;;;6.95;100.00;95269.09;10435818;28;20021;-70
2021/10/31 06:25:49;;;;;;;24.20;11.98;;;;;;;7.17;100.00;95273.78;10475376;28;20112;-78
2021/10/31 06:30:49;;;;;;;27.52;12.88;;;;;;;7.24;100.00;95277.13;10476395;28;20110;-72
2021/10/31 06:35:50;;;;;;;33.20;13.40;;;;;;;7.48;100.00;95277.84;10476602;28;20469;-72
2021/10/31 06:40:51;;;;;;;27.05;13.10;;;;;;;7.65;100.00;95280.53;10463260;28;20115;-72
2021/10/31 06:45:51;;;;;;;18.73;10.57;;;;;;;7.86;100.00;95278.22;10493413;28;20154;-72
2021/10/31 06:50:53;;;;;;;23.55;12.07;;;;;;;8.01;100.00;95273.13;10475906;28;20123;-73
2021/10/31 06:55:53;;;;;;;22.52;12.38;;;;;;;8.19;100.00;95279.25;10492971;28;20025;-73
2021/10/31 07:00:54;;;;;;;37.03;18.02;;;;;;;8.39;100.00;95274.22;10476220;28;20031;-73
2021/10/31 07:05:55;;;;;;;32.58;15.07;;;;;;;8.69;100.00;95270.38;10475815;28;20066;-73
2021/10/31 07:10:56;;;;;;;33.10;16.75;;;;;;;8.89;100.00;95283.22;10462867;28;20533;-73
2021/10/31 07:15:56;;;;;;;37.50;17.52;;;;;;;9.10;100.00;95279.97;10475676;28;20402;-73
2021/10/31 07:20:57;;;;;;;34.17;15.43;;;;;;;9.31;100.00;95278.38;10474875;28;20028;-70
2021/10/31 07:25:58;;;;;;;29.45;14.27;;;;;;;9.55;100.00;95278.88;10481643;28;20298;-70
2021/10/31 07:30:59;;;;;;;34.00;14.32;;;;;;;9.62;100.00;95268.75;10467881;28;20029;-74
2021/10/31 07:36:00;;;;;;;35.00;15.18;;;;;;;9.80;100.00;95261.41;10464681;28;20497;-70
2021/10/31 07:41:01;;;;;;;38.50;17.45;;;;;;;9.88;100.00;95263.63;10448786;28;20021;-74
2021/10/31 07:46:01;;;;;;;31.60;13.40;;;;;;;10.05;100.00;95250.88;10461782;28;20024;-71
2021/10/31 07:51:03;;;;;;;33.83;16.13;;;;;;;10.23;100.00;95254.22;10472055;28;20032;-73
2021/10/31 07:56:03;;;;;;;32.03;14.45;;;;;;;10.12;100.00;95258.72;10467934;28;20088;-75
2021/10/31 08:01:04;;;;;;;34.92;15.00;;;;;;;10.11;100.00;95262.47;10484712;28;20028;-76
2021/10/31 08:06:05;;;;;;;30.83;14.02;;;;;;;9.90;100.00;95253.44;10484897;28;20283;-76
2021/10/31 08:11:06;;;;;;;31.80;14.40;;;;;;;9.88;100.00;95255.56;10467343;28;20025;-76
2021/10/31 08:16:06;;;;;;;35.58;16.40;;;;;;;9.99;100.00;95243.84;10467487;28;20426;-75
2021/10/31 08:21:08;;;;;;;38.22;15.98;;;;;;;10.24;100.00;95247.78;10478291;28;20060;-71
2021/10/31 08:26:09;;;;;;;27.63;13.85;;;;;;;10.31;100.00;95242.19;10462585;28;20202;-74
2021/10/31 08:31:09;;;;;;;27.33;13.73;;;;;;;10.00;100.00;95242.75;10448801;28;20169;-77
2021/10/31 08:36:12;;;;;;;29.50;14.18;;;;;;;10.11;100.00;95246.34;10477259;28;20524;-72
2021/10/31 08:41:13;;;;;;;28.85;14.25;;;;;;;10.53;100.00;95228.66;10441971;28;20021;-76
2021/10/31 08:46:17;;;;;;;32.50;13.88;;;;;;;10.96;100.00;95225.91;10479877;28;20036;-72
2021/10/31 08:51:20;;;;;;;26.10;13.38;;;;;;;10.99;100.00;95220.00;10469250;28;20046;-70
2021/10/31 08:56:22;;;;;;;31.30;14.10;;;;;;;11.17;100.00;95221.41;10462201;28;20068;-71
2021/10/31 09:01:23;;;;;;;34.13;15.25;;;;;;;10.85;100.00;95212.41;10464588;28;20065;-77
2021/10/31 09:06:25;;;;;;;29.13;13.38;;;;;;;10.83;100.00;95206.47;10482202;28;20079;-71
2021/10/31 09:11:25;;;;;;;29.17;14.02;;;;;;;10.64;100.00;95206.13;10463624;28;20079;-72
2021/10/31 09:16:26;;;;;;;34.55;14.05;;;;;;;10.89;100.00;95204.63;10462929;28;20032;-71
2021/10/31 09:21:28;;;;;;;29.40;13.50;;;;;;;11.26;100.00;95195.56;10481757;28;20454;-77
2021/10/31 09:26:29;;;;;;;30.05;13.30;;;;;;;11.20;100.00;95191.25;10463591;28;20062;-73
2021/10/31 09:31:29;;;;;;;22.90;11.68;;;;;;;11.73;100.00;95183.00;10461527;28;20486;-71
2021/10/31 09:36:34;;;;;;;20.73;10.50;;;;;;;13.62;96.88;95175.38;10447446;28;20036;-69
2021/10/31 09:41:36;;;;;;;19.50;10.25;;;;;;;14.56;77.22;95159.91;10481265;28;20460;-71
2021/10/31 09:46:39;;;;;;;20.85;9.38;;;;;;;15.62;69.91;95151.78;10481381;28;20430;-71
2021/10/31 09:51:40;;;;;;;14.95;8.82;;;;;;;16.13;63.06;95153.69;10463716;28;20032;-71
2021/10/31 09:56:41;;;;;;;12.32;6.80;;;;;;;16.85;51.70;95138.75;10455484;28;20318;-68
2021/10/31 10:07:08;;;;;;;12.10;6.53;;;;;;;14.74;53.61;95136.75;10454954;28;20088;-71
2021/10/31 10:12:14;;;;;;;9.65;6.07;;;;;;;13.75;58.48;95138.81;10463299;28;20075;-72
2021/10/31 10:17:15;;;;;;;11.00;6.75;;;;;;;12.61;69.70;95137.84;10460425;28;20097;-71
2021/10/31 10:22:22;;;;;;;13.30;7.50;;;;;;;12.79;69.77;95131.03;10446113;28;20024;-71
2021/10/31 10:27:25;;;;;;;11.20;7.10;;;;;;;13.72;62.49;95125.88;10480762;28;20035;-71
2021/10/31 10:32:28;;;;;;;12.50;7.95;;;;;;;13.49;61.73;95112.03;10480385;28;20040;-75
2021/10/31 10:37:36;;;;;;;13.80;7.68;;;;;;;13.30;61.60;95108.34;10456717;28;20462;-72
2021/10/31 10:42:40;;;;;;;14.18;7.28;;;;;;;12.74;66.92;95121.09;10436079;28;20033;-74
2021/10/31 10:47:43;;;;;;;11.95;6.82;;;;;;;13.59;61.52;95091.41;10437539;28;20029;-75
2021/10/31 10:52:44;;;;;;;13.40;6.65;;;;;;;15.63;54.85;95091.06;10437563;28;20025;-70
2021/10/31 10:57:53;;;;;;;9.23;5.82;;;;;;;14.65;56.22;95087.91;10436990;28;20470;-75
2021/10/31 11:03:06;;;;;;;9.25;5.60;;;;;;;13.62;57.53;95088.94;10446871;28;20029;-70
2021/10/31 11:08:19;;;;;;;11.65;6.32;;;;;;;13.51;60.27;95079.31;10468802;28;20049;-70
2021/10/31 11:13:20;;;;;;;12.18;5.80;;;;;;;15.67;51.61;95068.53;10468415;28;20029;-72
2021/10/31 11:18:20;;;;;;;7.82;5.50;;;;;;;16.16;50.76;95063.59;10438584;28;20391;-71
2021/10/31 11:23:22;;;;;;;9.83;5.37;;;;;;;15.30;50.83;95055.84;10445002;28;20025;-71
2021/10/31 11:28:22;;;;;;;9.55;5.82;;;;;;;14.30;53.66;95060.16;10427498;28;20283;-73
2021/10/31 11:33:23;;;;;;;12.18;6.35;;;;;;;14.12;54.53;95048.22;10428174;28;20485;-74
2021/10/31 11:38:30;;;;;;;7.55;5.03;;;;;;;14.05;57.69;95036.94;10453217;28;20052;-70
2021/10/31 11:43:34;;;;;;;8.60;5.25;;;;;;;14.22;55.41;95039.16;10500559;28;20111;-69
2021/10/31 11:48:37;;;;;;;9.70;5.68;;;;;;;14.02;55.84;95026.69;10482937;28;20032;-70
2021/10/31 11:53:39;;;;;;;12.60;6.50;;;;;;;13.52;58.67;95018.03;10453492;28;20067;-75
2021/10/31 11:58:43;;;;;;;11.52;6.13;;;;;;;12.88;62.51;95026.06;10499267;28;20112;-74
2021/10/31 12:03:58;;;;;;;9.82;5.95;;;;;;;12.62;63.09;95018.94;10507022;28;20077;-75
2021/10/31 12:09:03;;;;;;;10.88;6.13;;;;;;;12.29;65.58;95020.44;10460971;28;20052;-72
2021/10/31 12:14:06;;;;;;;8.50;6.05;;;;;;;12.23;66.74;95013.50;10459191;28;20036;-74
2021/10/31 12:19:09;;;;;;;9.55;5.85;;;;;;;12.08;67.57;95003.56;10466568;28;20154;-70
2021/10/31 12:24:17;;;;;;;10.98;6.45;;;;;;;11.85;70.41;95000.41;10486683;28;20085;-74
2021/10/31 12:29:20;;;;;;;12.02;6.28;;;;;;;12.03;69.07;94990.13;10465712;28;20563;-72
2021/10/31 12:34:25;;;;;;;9.63;5.97;;;;;;;12.18;68.10;94986.56;10491214;28;20024;-72
2021/10/31 12:39:30;;;;;;;12.98;6.22;;;;;;;12.31;69.45;94975.19;10524496;28;20016;-71
2021/10/31 12:44:34;;;;;;;7.55;5.60;;;;;;;12.42;69.47;94990.22;10525092;28;20028;-75
2021/10/31 12:49:36;;;;;;;13.40;6.00;;;;;;;12.30;71.27;94977.06;10506269;28;20099;-73
2021/10/31 12:54:37;;;;;;;8.65;5.38;;;;;;;12.18;71.24;94975.78;10490248;28;20020;-71
2021/10/31 12:59:50;;;;;;;8.60;5.30;;;;;;;12.16;70.09;94977.97;10506637;28;20069;-74
2021/10/31 13:04:59;;;;;;;9.45;5.80;;;;;;;11.83;69.18;94977.50;10528697;28;20043;-74
2021/10/31 13:09:59;;;;;;;10.23;5.22;;;;;;;11.55;73.64;94974.38;10487691;28;20044;-75
2021/10/31 13:15:04;;;;;;;12.33;6.10;;;;;;;11.18;77.97;94978.22;10464181;28;20402;-74
2021/10/31 13:20:08;;;;;;;8.32;5.47;;;;;;;10.89;81.95;94976.06;10439608;28;20263;-75
2021/10/31 13:25:09;;;;;;;10.70;6.38;;;;;;;10.82;83.71;94972.84;10422362;28;20033;-70
2021/10/31 13:30:12;;;;;;;10.68;6.45;;;;;;;10.76;85.40;94972.81;10422391;28;20021;-74
2021/10/31 13:35:13;;;;;;;12.57;6.63;;;;;;;10.68;85.01;94967.19;10508420;28;20039;-74
2021/10/31 13:40:14;;;;;;;19.55;6.72;;;;;;;10.72;86.24;94969.06;10504915;28;20024;-78
2021/10/31 13:45:17;;;;;;;12.20;7.00;;;;;;;10.66;87.58;94969.31;10476193;28;20027;-70
2021/10/31 13:50:24;;;;;;;12.00;7.35;;;;;;;10.55;89.03;94969.31;10480769;28;20422;-76
2021/10/31 13:55:27;;;;;;;12.23;6.75;;;;;;;10.59;90.18;94959.66;10462440;28;20021;-71
2021/10/31 14:00:32;;;;;;;10.63;6.93;;;;;;;10.62;89.59;94962.84;10445645;28;20020;-75
2021/10/31 14:05:34;;;;;;;10.35;6.40;;;;;;;10.60;90.79;94960.44;10439485;28;20051;-75
2021/10/31 14:10:41;;;;;;;14.93;7.50;;;;;;;10.58;93.13;94952.66;10421792;28;20029;-70
2021/10/31 14:15:44;;;;;;;15.35;7.00;;;;;;;10.56;93.77;94957.50;10420511;28;20029;-70
2021/10/31 14:20:52;;;;;;;13.07;6.55;;;;;;;10.64;94.02;94958.84;10421309;28;20075;-71
2021/10/31 14:25:52;;;;;;;15.07;6.75;;;;;;;10.52;96.54;94959.09;10439003;28;20025;-68
2021/10/31 14:31:01;;;;;;;18.85;8.18;;;;;;;10.41;99.17;94954.78;10421163;28;20029;-76
2021/10/31 14:36:16;;;;;;;14.85;7.03;;;;;;;10.37;99.47;94951.03;10500273;28;20020;-74
2021/10/31 14:41:22;;;;;;;18.63;9.45;;;;;;;10.30;100.00;94948.56;10511722;28;20602;-76
2021/10/31 14:46:24;;;;;;;17.13;9.60;;;;;;;10.17;100.00;94949.88;10511742;28;20077;-76
2021/10/31 14:56:35;;;;;;;16.33;8.43;;;;;;;9.87;100.00;94947.91;10463982;28;20048;-75
2021/10/31 15:01:48;;;;;;;16.55;8.95;;;;;;;9.90;100.00;94942.81;10445225;28;20035;-71
2021/10/31 15:06:49;;;;;;;18.52;8.48;;;;;;;9.80;100.00;94944.66;10447763;28;20045;-71
2021/10/31 15:11:51;;;;;;;22.08;8.88;;;;;;;9.67;100.00;94941.38;10456344;28;20033;-74
2021/10/31 15:16:52;;;;;;;17.00;10.07;;;;;;;9.50;100.00;94946.97;10446001;28;21000;-77
2021/10/31 15:21:52;;;;;;;17.00;9.02;;;;;;;9.54;100.00;94937.31;10449915;28;20474;-72
2021/10/31 15:26:52;;;;;;;19.63;9.67;;;;;;;9.34;100.00;94935.31;10469076;28;20051;-70
2021/10/31 15:31:53;;;;;;;19.13;9.95;;;;;;;9.23;100.00;94934.44;10472302;28;20278;-70
2021/10/31 15:36:53;;;;;;;15.67;9.17;;;;;;;9.27;100.00;94942.78;10509601;28;20031;-78
2021/10/31 15:41:54;;;;;;;21.90;9.80;;;;;;;9.20;100.00;94945.69;10509166;28;20270;-70
2021/10/31 15:46:54;;;;;;;19.40;9.40;;;;;;;9.10;100.00;94950.19;10490695;28;20028;-70
2021/10/31 15:51:55;;;;;;;20.97;10.70;;;;;;;9.07;100.00;94951.53;10467577;28;20048;-70
2021/10/31 15:56:56;;;;;;;20.65;9.55;;;;;;;8.91;100.00;94945.25;10467116;28;20267;-75
2021/10/31 16:01:57;;;;;;;19.90;9.65;;;;;;;8.79;100.00;94956.16;10450903;28;20418;-72
2021/10/31 16:06:57;;;;;;;24.20;12.77;;;;;;;8.67;100.00;94959.00;10467048;28;20049;-72
2021/10/31 16:11:59;;;;;;;30.65;14.93;;;;;;;8.36;100.00;94964.06;10466174;28;20101;-70
2021/10/31 16:17:00;;;;;;;27.70;14.48;;;;;;;8.27;100.00;94964.75;10466217;28;20070;-74
2021/10/31 16:22:01;;;;;;;37.05;15.65;;;;;;;8.19;100.00;94968.69;10449245;28;20434;-71
2021/10/31 16:27:02;;;;;;;35.78;15.93;;;;;;;8.05;100.00;94968.25;10484286;28;20028;-72
2021/10/31 16:32:03;;;;;;;27.83;13.38;;;;;;;7.99;100.00;94958.56;10471974;28;20480;-76
2021/10/31 16:37:05;;;;;;;25.60;13.88;;;;;;;7.84;100.00;94959.22;10458100;28;20123;-71
2021/10/31 16:42:07;;;;;;;23.65;11.65;;;;;;;7.81;100.00;94967.75;10459280;28;20032;-71
2021/10/31 16:47:09;;;;;;;29.20;13.25;;;;;;;7.83;100.00;94965.63;10483806;28;20036;-71
2021/10/31 16:52:10;;;;;;;28.98;13.93;;;;;;;7.69;100.00;94973.22;10464265;28;20028;-75
2021/10/31 16:57:12;;;;;;;28.13;13.38;;;;;;;7.69;100.00;94974.03;10463970;28;20466;-71
2021/10/31 17:02:12;;;;;;;33.33;14.55;;;;;;;7.60;100.00;94970.16;10461004;28;20020;-71
2021/10/31 17:07:13;;;;;;;28.70;15.15;;;;;;;7.54;100.00;94973.84;10474785;28;20048;-75
2021/10/31 17:12:13;;;;;;;36.50;15.47;;;;;;;7.42;100.00;94981.16;10463816;28;20024;-75
2021/10/31 17:17:14;;;;;;;31.25;13.60;;;;;;;7.40;100.00;94978.75;10479715;28;20270;-71
2021/10/31 17:22:14;;;;;;;35.55;12.07;;;;;;;7.36;100.00;94967.72;10505227;28;20161;-71
2021/10/31 17:27:15;;;;;;;25.48;11.77;;;;;;;7.47;100.00;94968.66;10505219;28;20115;-71
2021/10/31 17:32:16;;;;;;;24.75;11.65;;;;;;;7.44;100.00;94969.16;10497961;28;20410;-71
2021/10/31 17:37:17;;;;;;;20.20;9.95;;;;;;;7.35;100.00;94968.78;10480875;28;20317;-74
2021/10/31 17:42:17;;;;;;;23.92;12.15;;;;;;;7.43;100.00;94966.75;10463403;28;20028;-73
2021/10/31 17:47:18;;;;;;;28.92;13.10;;;;;;;7.38;100.00;94958.66;10448901;28;20043;-71
2021/10/31 17:52:20;;;;;;;24.58;12.95;;;;;;;7.39;100.00;94961.06;10454232;28;20455;-69
2021/10/31 17:57:21;;;;;;;22.52;12.43;;;;;;;7.27;100.00;94957.69;10446924;28;20102;-78
2021/10/31 18:02:21;;;;;;;27.27;12.50;;;;;;;7.21;100.00;94964.03;10461970;28;20075;-71
2021/10/31 18:07:22;;;;;;;29.05;13.10;;;;;;;7.17;100.00;94950.34;10461954;28;20139;-72
2021/10/31 18:12:22;;;;;;;30.00;12.02;;;;;;;7.17;100.00;94963.69;10455286;28;20458;-69
2021/10/31 18:17:26;;;;;;;29.10;12.30;;;;;;;7.09;100.00;94956.09;10480372;28;20090;-73
2021/10/31 18:22:27;;;;;;;24.90;11.65;;;;;;;7.07;100.00;94955.56;10444729;28;20370;-72
2021/10/31 18:27:28;;;;;;;30.52;13.45;;;;;;;7.09;100.00;94948.09;10461714;28;20035;-76
2021/10/31 18:32:28;;;;;;;25.15;12.52;;;;;;;7.03;100.00;94943.72;10459744;28;20046;-74
2021/10/31 18:37:31;;;;;;;36.03;14.98;;;;;;;7.05;100.00;94954.97;10447666;28;20577;-71
2021/10/31 18:42:42;;;;;;;40.78;15.82;;;;;;;6.93;100.00;94950.53;10462740;28;20032;-72
2021/10/31 18:47:44;;;;;;;26.15;13.38;;;;;;;6.84;100.00;94949.34;10462305;28;20029;-74
2021/10/31 18:52:45;;;;;;;26.13;12.52;;;;;;;6.65;100.00;94941.56;10462221;28;20028;-75
2021/10/31 18:57:46;;;;;;;28.52;12.65;;;;;;;6.68;100.00;94937.59;10464301;28;20040;-69
2021/10/31 19:02:49;;;;;;;27.05;13.25;;;;;;;6.68;100.00;94942.94;10461150;28;20020;-74
2021/10/31 19:07:50;;;;;;;30.05;13.57;;;;;;;6.64;100.00;94947.16;10439333;28;20187;-71
2021/10/31 19:12:51;;;;;;;40.55;15.30;;;;;;;6.60;100.00;94948.69;10434872;28;20033;-70
2021/10/31 19:17:52;;;;;;;30.55;14.05;;;;;;;6.57;100.00;94949.19;10452370;28;20063;-72
2021/10/31 19:22:53;;;;;;;30.60;14.30;;;;;;;6.47;100.00;94942.63;10438081;28;20488;-71
2021/10/31 19:27:54;;;;;;;27.15;13.70;;;;;;;6.53;100.00;94948.03;10428306;28;20064;-74
2021/10/31 19:32:54;;;;;;;34.63;13.82;;;;;;;6.48;100.00;94952.25;10453297;28;20613;-74
2021/10/31 19:37:54;;;;;;;29.27;14.77;;;;;;;6.45;100.00;94947.41;10509773;28;20651;-73
2021/10/31 19:42:56;;;;;;;33.28;14.20;;;;;;;6.39;100.00;94958.22;10509845;28;20107;-75
2021/10/31 19:47:56;;;;;;;30.00;13.57;;;;;;;6.51;100.00;94953.63;10509964;28;20032;-70
2021/10/31 19:52:57;;;;;;;29.90;12.63;;;;;;;6.55;100.00;94952.09;10507140;28;20050;-71
2021/10/31 19:57:57;;;;;;;29.10;11.73;;;;;;;6.65;100.00;94949.56;10482089;28;20051;-73
2021/10/31 20:02:59;;;;;;;28.45;13.38;;;;;;;6.55;100.00;94951.28;10463353;28;20033;-71
2021/10/31 20:07:59;;;;;;;28.50;12.07;;;;;;;6.48;100.00;94954.13;10424843;28;20396;-71
2021/10/31 20:13:01;;;;;;;39.28;13.93;;;;;;;6.38;100.00;94946.75;10425593;28;20041;-70
2021/10/31 20:18:01;;;;;;;29.08;12.38;;;;;;;6.38;100.00;94952.09;10453517;28;20028;-71
2021/10/31 20:23:02;;;;;;;27.27;12.25;;;;;;;6.39;100.00;94950.22;10429013;28;20423;-70
2021/10/31 20:28:03;;;;;;;27.48;12.82;;;;;;;6.36;100.00;94940.81;10475887;28;20110;-72
2021/10/31 20:33:04;;;;;;;31.33;12.75;;;;;;;6.33;100.00;94946.66;10454162;28;20581;-70
2021/10/31 20:38:06;;;;;;;26.52;12.18;;;;;;;6.31;100.00;94951.44;10437227;28;20028;-72
2021/10/31 20:43:07;;;;;;;28.20;12.88;;;;;;;6.13;100.00;94944.44;10457751;28;20622;-70
2021/10/31 20:48:07;;;;;;;32.38;14.40;;;;;;;6.10;100.00;94945.72;10464968;28;20308;-74
2021/10/31 20:53:08;;;;;;;29.88;14.82;;;;;;;6.08;100.00;94945.16;10464065;28;20029;-67
2021/10/31 20:58:14;;;;;;;35.13;15.90;;;;;;;6.04;100.00;94951.22;10449801;28;20531;-73
2021/10/31 21:03:15;;;;;;;39.55;16.42;;;;;;;5.91;100.00;94953.06;10445085;28;20028;-72
2021/10/31 21:08:17;;;;;;;32.65;15.48;;;;;;;5.81;100.00;94947.56;10428593;28;20451;-76
2021/10/31 21:13:21;;;;;;;41.40;15.93;;;;;;;5.89;100.00;94949.03;10465207;28;20032;-72
2021/10/31 21:18:22;;;;;;;34.42;14.90;;;;;;;5.86;100.00;94939.66;10465794;28;20085;-72
2021/10/31 21:23:23;;;;;;;38.55;15.15;;;;;;;5.89;100.00;94927.69;10467002;28;20024;-74
2021/10/31 21:28:24;;;;;;;31.60;13.70;;;;;;;5.91;100.00;94929.06;10485165;28;20486;-69
2021/10/31 21:33:25;;;;;;;40.95;20.08;;;;;;;5.89;100.00;94933.84;10482665;28;20027;-74
2021/10/31 21:38:25;;;;;;;37.22;15.57;;;;;;;5.94;100.00;94925.91;10507710;28;20028;-73
2021/10/31 21:43:25;;;;;;;33.20;13.73;;;;;;;5.96;100.00;94923.84;10528533;28;20028;-74
2021/10/31 21:48:26;;;;;;;38.88;15.40;;;;;;;5.96;100.00;94912.38;10507046;28;20400;-68
2021/10/31 21:53:27;;;;;;;37.58;15.98;;;;;;;5.89;100.00;94911.69;10487646;28;20028;-74
2021/10/31 21:58:28;;;;;;;40.70;16.27;;;;;;;5.93;100.00;94915.50;10503907;28;20031;-71
2021/10/31 22:03:28;;;;;;;37.40;15.33;;;;;;;5.91;100.00;94910.41;10522884;28;20024;-71
2021/10/31 22:08:29;;;;;;;36.05;15.63;;;;;;;5.89;100.00;94912.50;10493214;28;20291;-72
2021/10/31 22:13:29;;;;;;;43.58;17.88;;;;;;;5.85;100.00;94918.53;10480425;28;20029;-70
2021/10/31 22:18:30;;;;;;;41.35;17.75;;;;;;;5.69;100.00;94917.47;10481006;28;20060;-68
2021/10/31 22:23:31;;;;;;;34.25;16.48;;;;;;;5.40;100.00;94920.91;10481462;28;20070;-70
2021/10/31 22:28:32;;;;;;;37.22;17.40;;;;;;;5.23;100.00;94915.50;10462804;28;20029;-72
2021/10/31 22:33:33;;;;;;;39.25;18.63;;;;;;;5.27;100.00;94918.50;10469675;28;20099;-74
2021/10/31 22:38:34;;;;;;;40.65;18.00;;;;;;;5.21;100.00;94914.91;10461357;28;20071;-71
2021/10/31 22:43:35;;;;;;;45.67;19.38;;;;;;;5.15;100.00;94905.22;10462845;28;20139;-73
2021/10/31 22:48:35;;;;;;;44.25;19.35;;;;;;;4.99;100.00;94904.06;10480878;28;20029;-70
2021/10/31 22:53:36;;;;;;;36.65;17.10;;;;;;;4.83;100.00;94902.94;10462902;28;20036;-73
2021/10/31 22:58:37;;;;;;;40.40;18.30;;;;;;;4.64;100.00;94902.25;10484572;28;20032;-74
2021/10/31 23:03:42;;;;;;;36.70;16.95;;;;;;;4.66;100.00;94904.66;10463039;28;20043;-70
2021/10/31 23:08:44;;;;;;;42.10;18.92;;;;;;;4.57;100.00;94891.69;10449633;28;20477;-74
2021/10/31 23:13:49;;;;;;;44.65;19.58;;;;;;;4.55;100.00;94895.63;10449615;28;20058;-71